Time;durP1;ratioP1;P1;durP2;ratioP2;P2;SDS_P1;SDS_P2;PMS_P1;PMS_P2;Temp;Humidity;BMP_temperature;BMP_pressure;BME280_temperature;BME280_humidity;BME280_pressure;Samples;Min_cycle;Max_cycle;Signal;HPM_P1;HPM_P2
2024/01/14 00:02:07;;;;;;;30.02;13.43;;;;;;;;;;4925302;29;20047;-81
2024/01/14 00:04:34;;;;;;;34.10;13.55;;;;;;;;;;4925323;29;20134;-80
2024/01/14 00:07:01;;;;;;;33.97;13.73;;;;;;;;;;4924925;29;20114;-81
2024/01/14 00:09:28;;;;;;;32.53;13.90;;;;;;;;;;4941629;29;20125;-81
2024/01/14 00:11:55;;;;;;;40.08;15.77;;;;;;;;;;4940735;29;20142;-81
2024/01/14 00:14:22;;;;;;;37.78;14.75;;;;;;;;;;4924971;29;20051;-82
2024/01/14 00:16:48;;;;;;;35.85;14.25;;;;;;;;;;4924959;29;20570;-82
2024/01/14 00:19:15;;;;;;;34.90;12.82;;;;;;;;;;4920928;29;20485;-79
2024/01/14 00:21:42;;;;;;;35.33;13.18;;;;;;;;;;4938087;29;20507;-80
2024/01/14 00:24:09;;;;;;;35.65;14.30;;;;;;;;;;4925394;29;20134;-80
2024/01/14 00:26:36;;;;;;;35.00;15.32;;;;;;;;;;4941178;29;20073;-80
2024/01/14 00:29:03;;;;;;;34.55;14.00;;;;;;;;;;4923214;29;20048;-80
2024/01/14 00:31:30;;;;;;;36.80;14.07;;;;;;;;;;4924536;29;20085;-80
2024/01/14 00:33:57;;;;;;;37.80;14.63;;;;;;;;;;4940781;29;20059;-80
2024/01/14 00:36:24;;;;;;;36.38;13.40;;;;;;;;;;4941376;29;20082;-80
2024/01/14 00:38:51;;;;;;;36.20;15.73;;;;;;;;;;4924779;29;20094;-80
2024/01/14 00:41:18;;;;;;;36.50;14.88;;;;;;;;;;4928828;29;20055;-80
2024/01/14 00:43:44;;;;;;;35.00;13.43;;;;;;;;;;4937713;29;20054;-80
2024/01/14 00:46:12;;;;;;;35.60;14.52;;;;;;;;;;4945053;29;20063;-79
2024/01/14 00:48:38;;;;;;;35.80;14.15;;;;;;;;;;4931609;29;20465;-79
2024/01/14 00:51:06;;;;;;;36.78;15.77;;;;;;;;;;4932186;29;20053;-79
2024/01/14 00:53:33;;;;;;;39.28;16.20;;;;;;;;;;4949544;29;20115;-79
2024/01/14 00:56:00;;;;;;;42.60;16.20;;;;;;;;;;4927581;29;20079;-79
2024/01/14 00:58:27;;;;;;;40.10;15.48;;;;;;;;;;4935603;29;20404;-80
2024/01/14 01:00:53;;;;;;;48.08;16.63;;;;;;;;;;4940789;29;20056;-82
2024/01/14 01:03:20;;;;;;;42.38;16.23;;;;;;;;;;4927453;29;20058;-82
2024/01/14 01:05:47;;;;;;;41.28;15.65;;;;;;;;;;4942386;29;20554;-83
2024/01/14 01:08:14;;;;;;;43.38;17.00;;;;;;;;;;4927553;29;20178;-83
2024/01/14 01:10:41;;;;;;;40.28;17.45;;;;;;;;;;4942153;29;20063;-82
2024/01/14 01:13:08;;;;;;;39.90;16.27;;;;;;;;;;4922379;29;20079;-83
2024/01/14 01:15:35;;;;;;;43.55;17.00;;;;;;;;;;4938684;29;20448;-82
2024/01/14 01:18:02;;;;;;;37.88;16.55;;;;;;;;;;4927044;29;20054;-82
2024/01/14 01:20:29;;;;;;;43.08;15.15;;;;;;;;;;4943342;28;20043;-82
2024/01/14 01:22:56;;;;;;;43.72;17.10;;;;;;;;;;4943764;29;20062;-83
2024/01/14 01:25:23;;;;;;;40.13;17.25;;;;;;;;;;4924913;29;20428;-84
2024/01/14 01:27:50;;;;;;;41.60;15.70;;;;;;;;;;4941316;29;20079;-82
2024/01/14 01:30:16;;;;;;;38.47;15.50;;;;;;;;;;4926838;29;20075;-82
2024/01/14 01:32:43;;;;;;;39.70;16.95;;;;;;;;;;4927705;29;20047;-83
2024/01/14 01:35:11;;;;;;;41.78;15.82;;;;;;;;;;4937513;29;20059;-82
2024/01/14 01:37:37;;;;;;;39.38;15.20;;;;;;;;;;4937488;29;20059;-82
2024/01/14 01:40:05;;;;;;;40.25;16.17;;;;;;;;;;4923855;29;20121;-82
2024/01/14 01:42:34;;;;;;;45.22;16.98;;;;;;;;;;4924713;29;20407;-82
2024/01/14 01:45:01;;;;;;;38.90;14.98;;;;;;;;;;4925016;29;20066;-82
2024/01/14 01:47:28;;;;;;;53.42;16.60;;;;;;;;;;4940089;28;20058;-81
2024/01/14 01:49:55;;;;;;;46.92;17.27;;;;;;;;;;4940730;29;20083;-82
2024/01/14 01:52:22;;;;;;;33.38;14.98;;;;;;;;;;4923558;29;20047;-82
2024/01/14 01:54:49;;;;;;;39.42;16.40;;;;;;;;;;4935777;29;20051;-82
2024/01/14 01:57:17;;;;;;;34.78;14.35;;;;;;;;;;4923530;29;20055;-81
2024/01/14 01:59:45;;;;;;;45.75;15.93;;;;;;;;;;4939325;28;20047;-82
2024/01/14 02:02:12;;;;;;;39.22;16.02;;;;;;;;;;4923899;29;20133;-82
2024/01/14 02:04:39;;;;;;;42.92;15.63;;;;;;;;;;4939599;29;20074;-82
2024/01/14 02:07:06;;;;;;;51.10;16.60;;;;;;;;;;4923233;29;20055;-82
2024/01/14 02:09:33;;;;;;;45.90;16.00;;;;;;;;;;4922825;29;20495;-82
2024/01/14 02:12:00;;;;;;;46.83;16.10;;;;;;;;;;4921194;29;20055;-81
2024/01/14 02:14:27;;;;;;;40.90;16.00;;;;;;;;;;4949018;28;20049;-78
2024/01/14 02:16:54;;;;;;;40.63;15.35;;;;;;;;;;4954268;29;20048;-81
2024/01/14 02:19:20;;;;;;;44.63;16.45;;;;;;;;;;4919730;29;20051;-81
2024/01/14 02:22:03;;;;;;;41.80;15.27;;;;;;;;;;4918490;29;20048;-81
2024/01/14 02:24:31;;;;;;;43.85;15.38;;;;;;;;;;4936510;28;20078;-81
2024/01/14 02:26:58;;;;;;;42.97;16.63;;;;;;;;;;4924401;29;20106;-80
2024/01/14 02:29:27;;;;;;;39.63;15.60;;;;;;;;;;4940256;29;20214;-81
2024/01/14 02:31:55;;;;;;;39.35;16.00;;;;;;;;;;4925157;29;20059;-81
2024/01/14 02:34:22;;;;;;;38.17;15.48;;;;;;;;;;4925936;29;20113;-82
2024/01/14 02:36:49;;;;;;;41.72;15.52;;;;;;;;;;4926502;29;20062;-82
2024/01/14 02:39:16;;;;;;;48.38;17.25;;;;;;;;;;4926249;29;20118;-82
2024/01/14 02:41:43;;;;;;;41.92;15.23;;;;;;;;;;4926651;29;20051;-82
2024/01/14 02:44:10;;;;;;;44.45;17.92;;;;;;;;;;4927218;29;20483;-82
2024/01/14 02:46:37;;;;;;;40.80;16.75;;;;;;;;;;4927589;29;20063;-82
2024/01/14 02:49:04;;;;;;;46.90;16.55;;;;;;;;;;4927884;29;20043;-82
2024/01/14 02:51:31;;;;;;;48.60;16.50;;;;;;;;;;4926764;29;20047;-82
2024/01/14 02:54:01;;;;;;;40.55;15.57;;;;;;;;;;4927045;29;20130;-82
2024/01/14 02:56:28;;;;;;;44.22;16.88;;;;;;;;;;4928189;29;20059;-81
2024/01/14 02:58:56;;;;;;;42.92;15.90;;;;;;;;;;4926401;29;20129;-83
2024/01/14 03:01:23;;;;;;;44.25;14.65;;;;;;;;;;4924019;29;20134;-83
2024/01/14 03:03:50;;;;;;;44.30;16.63;;;;;;;;;;4916023;29;20455;-83
2024/01/14 03:06:17;;;;;;;45.25;16.75;;;;;;;;;;4923034;29;20052;-83
2024/01/14 03:08:45;;;;;;;45.10;15.55;;;;;;;;;;4930535;29;20051;-83
2024/01/14 03:11:12;;;;;;;45.38;15.18;;;;;;;;;;4923152;29;20475;-81
2024/01/14 03:13:39;;;;;;;41.92;17.85;;;;;;;;;;4919898;29;20574;-82
2024/01/14 03:16:06;;;;;;;41.40;15.90;;;;;;;;;;4914967;29;20056;-80
2024/01/14 03:18:36;;;;;;;47.78;16.83;;;;;;;;;;4940032;29;20059;-82
2024/01/14 03:21:08;;;;;;;43.38;14.77;;;;;;;;;;4937886;29;20047;-82
2024/01/14 03:23:34;;;;;;;48.92;16.95;;;;;;;;;;4947825;29;20047;-82
2024/01/14 03:26:01;;;;;;;51.70;17.15;;;;;;;;;;4960133;29;20058;-83
2024/01/14 03:28:28;;;;;;;40.58;15.13;;;;;;;;;;4945663;28;20039;-82
2024/01/14 03:30:55;;;;;;;44.13;17.10;;;;;;;;;;4949504;28;20063;-82
2024/01/14 03:33:22;;;;;;;44.88;18.45;;;;;;;;;;4947547;29;20079;-82
2024/01/14 03:35:49;;;;;;;47.10;18.20;;;;;;;;;;4947556;29;20035;-82
2024/01/14 03:38:16;;;;;;;49.38;17.85;;;;;;;;;;4943297;29;20078;-84
2024/01/14 03:40:43;;;;;;;53.03;16.05;;;;;;;;;;4936793;29;20071;-81
2024/01/14 03:43:10;;;;;;;42.40;15.18;;;;;;;;;;4939235;29;20037;-81
2024/01/14 03:45:36;;;;;;;51.88;18.25;;;;;;;;;;4946829;29;20237;-81
2024/01/14 03:48:04;;;;;;;47.65;15.95;;;;;;;;;;4962202;29;20057;-80
2024/01/14 03:50:31;;;;;;;49.05;18.35;;;;;;;;;;4946336;29;20111;-81
2024/01/14 03:52:58;;;;;;;44.67;16.23;;;;;;;;;;4961334;29;20062;-81
2024/01/14 03:55:24;;;;;;;48.63;18.40;;;;;;;;;;4948527;29;20137;-81
2024/01/14 03:57:51;;;;;;;44.60;15.65;;;;;;;;;;4945241;29;20054;-81
2024/01/14 04:00:18;;;;;;;50.72;17.67;;;;;;;;;;4945432;29;20504;-80
2024/01/14 04:02:45;;;;;;;41.85;15.40;;;;;;;;;;4946259;29;20058;-80
2024/01/14 04:05:12;;;;;;;50.88;17.15;;;;;;;;;;4945408;29;20035;-80
2024/01/14 04:07:39;;;;;;;44.35;15.52;;;;;;;;;;4961512;29;20039;-79
2024/01/14 04:10:06;;;;;;;43.03;15.45;;;;;;;;;;4952271;29;20044;-81
2024/01/14 04:12:32;;;;;;;52.55;16.90;;;;;;;;;;4941656;29;20087;-79
2024/01/14 04:14:59;;;;;;;46.35;16.55;;;;;;;;;;4937728;29;20071;-79
2024/01/14 04:17:26;;;;;;;49.00;16.85;;;;;;;;;;4960706;28;20047;-81
2024/01/14 04:19:53;;;;;;;45.00;16.30;;;;;;;;;;4927412;28;20051;-81
2024/01/14 04:22:20;;;;;;;46.38;17.08;;;;;;;;;;4941432;28;20057;-81
2024/01/14 04:24:47;;;;;;;51.33;16.90;;;;;;;;;;4950009;29;20082;-80
2024/01/14 04:27:13;;;;;;;44.72;16.92;;;;;;;;;;4953896;29;20067;-82
2024/01/14 04:29:40;;;;;;;50.55;17.67;;;;;;;;;;4929938;29;20173;-82
2024/01/14 04:32:07;;;;;;;42.70;16.10;;;;;;;;;;4922636;29;20055;-81
2024/01/14 04:34:34;;;;;;;50.78;17.35;;;;;;;;;;4938562;29;20138;-81
2024/01/14 04:37:01;;;;;;;51.30;17.42;;;;;;;;;;4915017;29;20570;-82
2024/01/14 04:39:28;;;;;;;47.47;16.35;;;;;;;;;;4937119;29;20511;-81
2024/01/14 04:41:57;;;;;;;46.28;17.65;;;;;;;;;;4921569;29;20142;-81
2024/01/14 04:44:24;;;;;;;37.95;17.13;;;;;;;;;;4922864;29;20055;-81
2024/01/14 04:46:50;;;;;;;49.90;16.13;;;;;;;;;;4938896;29;20055;-81
2024/01/14 04:49:17;;;;;;;49.72;18.60;;;;;;;;;;4937887;29;20142;-81
2024/01/14 04:51:44;;;;;;;46.13;16.48;;;;;;;;;;4936414;29;20051;-83
2024/01/14 04:54:11;;;;;;;45.03;15.73;;;;;;;;;;4938262;29;20191;-82
2024/01/14 04:56:39;;;;;;;47.50;17.88;;;;;;;;;;4922683;29;20055;-82
2024/01/14 04:59:06;;;;;;;51.70;17.55;;;;;;;;;;4922933;29;20141;-81
2024/01/14 05:01:33;;;;;;;44.10;16.33;;;;;;;;;;4938123;29;20055;-81
2024/01/14 05:04:00;;;;;;;48.25;16.38;;;;;;;;;;4938902;29;20519;-81
2024/01/14 05:06:28;;;;;;;43.47;16.42;;;;;;;;;;4922168;29;20059;-81
2024/01/14 05:08:55;;;;;;;44.92;17.05;;;;;;;;;;4922403;29;20066;-82
2024/01/14 05:11:22;;;;;;;48.53;18.42;;;;;;;;;;4919466;29;20464;-81
2024/01/14 05:13:49;;;;;;;59.38;18.90;;;;;;;;;;4937117;28;20126;-81
2024/01/14 05:16:15;;;;;;;51.88;18.08;;;;;;;;;;4923345;29;20098;-82
2024/01/14 05:18:42;;;;;;;48.53;17.02;;;;;;;;;;4936330;29;20401;-82
2024/01/14 05:21:17;;;;;;;46.63;17.20;;;;;;;;;;4922033;29;20050;-81
2024/01/14 05:23:44;;;;;;;51.05;18.40;;;;;;;;;;4923214;29;20063;-81
2024/01/14 05:26:10;;;;;;;52.00;20.10;;;;;;;;;;4922494;29;20109;-81
2024/01/14 05:28:37;;;;;;;46.17;16.67;;;;;;;;;;4938461;29;20075;-82
2024/01/14 05:31:05;;;;;;;44.45;17.25;;;;;;;;;;4923167;29;20054;-82
2024/01/14 05:33:32;;;;;;;45.97;16.73;;;;;;;;;;4946240;29;20100;-80
2024/01/14 05:36:00;;;;;;;50.03;17.60;;;;;;;;;;4965233;29;20058;-82
2024/01/14 05:38:27;;;;;;;47.08;17.20;;;;;;;;;;4923308;29;20130;-82
2024/01/14 05:40:55;;;;;;;61.10;21.27;;;;;;;;;;4930574;29;20422;-81
2024/01/14 05:43:21;;;;;;;56.42;18.88;;;;;;;;;;4923102;29;20111;-81
2024/01/14 05:45:48;;;;;;;51.15;20.13;;;;;;;;;;4923240;29;20055;-80
2024/01/14 05:48:15;;;;;;;49.00;17.67;;;;;;;;;;4922598;29;20093;-80
2024/01/14 05:50:46;;;;;;;50.40;19.05;;;;;;;;;;4923555;29;20051;-80
2024/01/14 05:53:13;;;;;;;53.83;17.73;;;;;;;;;;4918282;29;20052;-81
2024/01/14 05:55:43;;;;;;;57.70;18.92;;;;;;;;;;4935093;29;20078;-79
2024/01/14 05:58:10;;;;;;;50.33;18.10;;;;;;;;;;4938414;29;20055;-81
2024/01/14 06:00:37;;;;;;;47.92;18.35;;;;;;;;;;4926481;29;20071;-80
2024/01/14 06:03:04;;;;;;;50.20;18.90;;;;;;;;;;4927371;29;20055;-81
2024/01/14 06:05:31;;;;;;;53.75;18.52;;;;;;;;;;4927144;29;20059;-80
2024/01/14 06:07:58;;;;;;;53.42;17.67;;;;;;;;;;4926895;29;20055;-80
2024/01/14 06:10:25;;;;;;;53.42;18.58;;;;;;;;;;4927356;29;20055;-79
2024/01/14 06:12:52;;;;;;;49.67;16.75;;;;;;;;;;4943642;29;20574;-79
2024/01/14 06:15:19;;;;;;;43.15;16.95;;;;;;;;;;4924905;29;20059;-80
2024/01/14 06:17:46;;;;;;;59.50;19.38;;;;;;;;;;4942505;29;20150;-80
2024/01/14 06:20:13;;;;;;;45.30;17.65;;;;;;;;;;4928128;29;20070;-79
2024/01/14 06:22:40;;;;;;;46.83;16.58;;;;;;;;;;4943590;29;20428;-82
2024/01/14 06:25:07;;;;;;;45.80;16.98;;;;;;;;;;4942976;29;20075;-79
2024/01/14 06:27:34;;;;;;;50.08;18.50;;;;;;;;;;4945313;29;20094;-80
2024/01/14 06:30:03;;;;;;;53.45;19.17;;;;;;;;;;4928651;29;20431;-79
2024/01/14 06:32:31;;;;;;;55.95;19.77;;;;;;;;;;4939824;29;20043;-78
2024/01/14 06:34:58;;;;;;;51.08;17.52;;;;;;;;;;4951506;29;20055;-80
2024/01/14 06:37:25;;;;;;;48.03;17.23;;;;;;;;;;4940371;29;20055;-79
2024/01/14 06:39:52;;;;;;;52.63;17.38;;;;;;;;;;4939058;29;20138;-80
2024/01/14 06:42:19;;;;;;;45.00;17.27;;;;;;;;;;4924181;29;20086;-80
2024/01/14 06:44:45;;;;;;;50.35;18.25;;;;;;;;;;4923307;29;20070;-80
2024/01/14 06:47:12;;;;;;;46.15;17.63;;;;;;;;;;4927084;29;20094;-83
2024/01/14 06:49:39;;;;;;;48.95;16.48;;;;;;;;;;4942757;29;20085;-82
2024/01/14 06:52:06;;;;;;;50.95;18.25;;;;;;;;;;4926832;29;20082;-80
2024/01/14 06:54:33;;;;;;;55.30;19.10;;;;;;;;;;4926178;29;20188;-80
2024/01/14 06:57:00;;;;;;;49.05;17.70;;;;;;;;;;4940557;29;20525;-80
2024/01/14 06:59:27;;;;;;;44.42;17.05;;;;;;;;;;4928433;29;20484;-80
2024/01/14 07:01:53;;;;;;;44.67;17.17;;;;;;;;;;4944188;29;20160;-80
2024/01/14 07:04:20;;;;;;;47.00;16.20;;;;;;;;;;4942744;29;20062;-80
2024/01/14 07:06:47;;;;;;;43.80;16.95;;;;;;;;;;4929448;29;20070;-80
2024/01/14 07:09:14;;;;;;;50.85;16.30;;;;;;;;;;4926292;29;20111;-80
2024/01/14 07:11:41;;;;;;;48.17;16.25;;;;;;;;;;4940561;29;20051;-80
2024/01/14 07:14:08;;;;;;;43.42;15.57;;;;;;;;;;4926672;29;20530;-80
2024/01/14 07:16:35;;;;;;;47.03;16.42;;;;;;;;;;4928323;29;20058;-82
2024/01/14 07:19:03;;;;;;;47.65;17.15;;;;;;;;;;4946200;28;20074;-81
2024/01/14 07:21:31;;;;;;;47.95;16.42;;;;;;;;;;4960424;29;20114;-82
2024/01/14 07:23:58;;;;;;;38.13;16.05;;;;;;;;;;4944240;28;20475;-81
2024/01/14 07:26:25;;;;;;;44.40;16.10;;;;;;;;;;4925924;29;20059;-82
2024/01/14 07:28:52;;;;;;;42.88;16.65;;;;;;;;;;4943676;28;20059;-82
2024/01/14 07:31:23;;;;;;;37.97;14.40;;;;;;;;;;4926560;29;20058;-82
2024/01/14 07:33:50;;;;;;;43.20;14.88;;;;;;;;;;4938997;28;20089;-82
2024/01/14 07:36:19;;;;;;;47.58;16.35;;;;;;;;;;4926166;29;20430;-84
2024/01/14 07:38:46;;;;;;;37.00;14.55;;;;;;;;;;4940441;29;20075;-81
2024/01/14 07:41:13;;;;;;;41.63;14.43;;;;;;;;;;4924908;29;20059;-83
2024/01/14 07:43:40;;;;;;;40.15;14.05;;;;;;;;;;4924444;29;20542;-82
2024/01/14 07:46:08;;;;;;;47.78;16.33;;;;;;;;;;4923939;29;20486;-82
2024/01/14 07:48:35;;;;;;;39.15;15.18;;;;;;;;;;4940569;29;20704;-81
2024/01/14 07:51:03;;;;;;;41.85;15.70;;;;;;;;;;4940443;29;20077;-82
2024/01/14 07:53:30;;;;;;;47.78;16.13;;;;;;;;;;4934201;28;20052;-82
2024/01/14 07:55:57;;;;;;;40.13;14.70;;;;;;;;;;4925309;29;20054;-82
2024/01/14 07:58:24;;;;;;;43.63;15.90;;;;;;;;;;4927875;29;20086;-83
2024/01/14 08:00:51;;;;;;;40.83;14.32;;;;;;;;;;4942924;28;20066;-81
2024/01/14 08:03:29;;;;;;;41.00;15.63;;;;;;;;;;4928603;29;20083;-82
2024/01/14 08:05:56;;;;;;;43.33;15.75;;;;;;;;;;4926459;29;20139;-82
2024/01/14 08:08:23;;;;;;;45.08;17.65;;;;;;;;;;4924711;29;20055;-81
2024/01/14 08:10:51;;;;;;;37.03;15.90;;;;;;;;;;4924484;29;20074;-83
2024/01/14 08:13:19;;;;;;;44.88;16.67;;;;;;;;;;4920909;29;20412;-81
2024/01/14 08:15:46;;;;;;;42.70;15.60;;;;;;;;;;4939140;28;20058;-81
2024/01/14 08:18:27;;;;;;;42.10;16.08;;;;;;;;;;4921939;29;20138;-81
2024/01/14 08:20:54;;;;;;;44.90;15.52;;;;;;;;;;4917707;29;20059;-80
2024/01/14 08:23:21;;;;;;;42.58;17.13;;;;;;;;;;4944191;29;20079;-83
2024/01/14 08:25:49;;;;;;;45.88;15.35;;;;;;;;;;4930595;29;20686;-82
2024/01/14 08:28:16;;;;;;;48.08;18.25;;;;;;;;;;4933147;29;20620;-83
2024/01/14 08:30:43;;;;;;;37.22;16.08;;;;;;;;;;4922167;29;20044;-85
2024/01/14 08:33:10;;;;;;;48.15;17.13;;;;;;;;;;4922641;29;20525;-82
2024/01/14 08:35:38;;;;;;;43.05;16.65;;;;;;;;;;4929636;29;20089;-81
2024/01/14 08:38:04;;;;;;;44.35;16.50;;;;;;;;;;4923639;29;20043;-81
2024/01/14 08:40:31;;;;;;;41.50;16.13;;;;;;;;;;4937790;29;20614;-79
2024/01/14 08:42:58;;;;;;;45.90;16.33;;;;;;;;;;4922864;29;20055;-80
2024/01/14 08:45:25;;;;;;;48.90;17.30;;;;;;;;;;4939071;29;20059;-80
2024/01/14 08:47:52;;;;;;;39.22;15.63;;;;;;;;;;4926792;29;20085;-81
2024/01/14 08:50:20;;;;;;;44.22;16.88;;;;;;;;;;4939349;29;20464;-80
2024/01/14 08:52:47;;;;;;;44.17;16.63;;;;;;;;;;4923316;29;20083;-83
2024/01/14 08:55:13;;;;;;;42.55;16.80;;;;;;;;;;4944786;29;20051;-81
2024/01/14 08:57:41;;;;;;;43.65;16.45;;;;;;;;;;4939621;29;20047;-81
2024/01/14 09:00:11;;;;;;;45.90;17.77;;;;;;;;;;4925253;29;20063;-84
2024/01/14 09:02:39;;;;;;;40.92;18.23;;;;;;;;;;4930488;29;20698;-82
2024/01/14 09:05:06;;;;;;;42.80;16.88;;;;;;;;;;4924049;29;20074;-82
2024/01/14 09:07:33;;;;;;;41.72;15.68;;;;;;;;;;4925029;29;20641;-82
2024/01/14 09:10:01;;;;;;;41.35;17.33;;;;;;;;;;4919008;29;20404;-84
2024/01/14 09:12:29;;;;;;;43.45;17.83;;;;;;;;;;4922424;29;20043;-81
2024/01/14 09:14:56;;;;;;;39.83;16.00;;;;;;;;;;4923376;29;20679;-82
2024/01/14 09:17:23;;;;;;;43.38;16.67;;;;;;;;;;4930953;29;20138;-81
2024/01/14 09:19:50;;;;;;;37.90;16.80;;;;;;;;;;4929572;29;20570;-80
2024/01/14 09:22:17;;;;;;;46.00;17.98;;;;;;;;;;4921698;29;20090;-81
2024/01/14 09:24:45;;;;;;;41.15;17.42;;;;;;;;;;4930587;29;20566;-80
2024/01/14 09:27:17;;;;;;;44.45;16.85;;;;;;;;;;4931316;29;20090;-81
2024/01/14 09:29:44;;;;;;;39.17;16.73;;;;;;;;;;4924459;29;20055;-82
2024/01/14 09:32:11;;;;;;;42.90;16.70;;;;;;;;;;4923705;29;20106;-82
2024/01/14 09:34:39;;;;;;;45.97;18.15;;;;;;;;;;4921957;29;20179;-81
2024/01/14 09:37:07;;;;;;;49.75;19.80;;;;;;;;;;4937181;29;20474;-80
2024/01/14 09:39:34;;;;;;;45.30;16.60;;;;;;;;;;4923069;29;20043;-79
2024/01/14 09:42:04;;;;;;;41.88;17.73;;;;;;;;;;4941219;29;20304;-81
2024/01/14 09:44:31;;;;;;;38.60;18.90;;;;;;;;;;4955147;29;20055;-80
2024/01/14 09:46:58;;;;;;;36.08;15.43;;;;;;;;;;4927593;29;20102;-81
2024/01/14 09:49:26;;;;;;;42.83;18.33;;;;;;;;;;4934001;28;20142;-81
2024/01/14 09:51:55;;;;;;;41.58;15.70;;;;;;;;;;4924719;29;20055;-81
2024/01/14 09:54:22;;;;;;;46.83;18.70;;;;;;;;;;4929003;29;20054;-81
2024/01/14 09:56:52;;;;;;;35.42;15.43;;;;;;;;;;4921503;29;20462;-82
2024/01/14 09:59:19;;;;;;;44.95;16.33;;;;;;;;;;4925505;29;20047;-81
2024/01/14 10:01:46;;;;;;;34.58;15.73;;;;;;;;;;4920314;29;20085;-81
2024/01/14 10:04:13;;;;;;;38.80;16.70;;;;;;;;;;4921111;29;20147;-80
2024/01/14 10:06:43;;;;;;;41.35;16.90;;;;;;;;;;4922061;29;20043;-82
2024/01/14 10:09:11;;;;;;;42.00;16.27;;;;;;;;;;4921962;29;20083;-81
2024/01/14 10:11:37;;;;;;;45.45;18.58;;;;;;;;;;4925609;29;20047;-82
2024/01/14 10:14:05;;;;;;;51.65;18.05;;;;;;;;;;4921180;29;20065;-82
2024/01/14 10:16:37;;;;;;;44.00;17.98;;;;;;;;;;4925618;29;20051;-81
2024/01/14 10:19:20;;;;;;;45.08;18.23;;;;;;;;;;4930096;29;20055;-82
2024/01/14 10:21:48;;;;;;;41.40;17.92;;;;;;;;;;4924470;29;20130;-82
2024/01/14 10:24:35;;;;;;;45.45;17.45;;;;;;;;;;4944198;29;20047;-81
2024/01/14 10:27:03;;;;;;;44.95;16.83;;;;;;;;;;4926983;29;20063;-82
2024/01/14 10:29:31;;;;;;;40.90;17.05;;;;;;;;;;4926364;29;20051;-82
2024/01/14 10:31:58;;;;;;;47.95;18.08;;;;;;;;;;4930873;29;20047;-82
2024/01/14 10:34:25;;;;;;;36.45;16.02;;;;;;;;;;4921706;29;20107;-82
2024/01/14 10:36:59;;;;;;;39.85;16.42;;;;;;;;;;4922624;29;20050;-82
2024/01/14 10:39:33;;;;;;;40.67;17.47;;;;;;;;;;4921891;29;20055;-82
2024/01/14 10:42:01;;;;;;;39.08;16.67;;;;;;;;;;4936883;29;20058;-82
2024/01/14 10:44:28;;;;;;;41.20;16.33;;;;;;;;;;4919032;29;20055;-82
2024/01/14 10:46:56;;;;;;;38.90;16.77;;;;;;;;;;4940014;29;20109;-81
2024/01/14 10:49:25;;;;;;;36.60;16.38;;;;;;;;;;4925765;29;20530;-82
2024/01/14 10:52:11;;;;;;;39.45;16.50;;;;;;;;;;4932941;29;20051;-82
2024/01/14 10:54:52;;;;;;;44.75;18.50;;;;;;;;;;4924700;29;20062;-82
2024/01/14 10:57:35;;;;;;;41.72;17.52;;;;;;;;;;4937958;29;20134;-80
2024/01/14 11:00:09;;;;;;;42.70;17.13;;;;;;;;;;4941219;29;20079;-79
2024/01/14 11:02:37;;;;;;;36.75;16.98;;;;;;;;;;4934402;29;20107;-79
2024/01/14 11:05:08;;;;;;;37.78;16.85;;;;;;;;;;4924835;29;20186;-79
2024/01/14 11:07:35;;;;;;;40.05;17.52;;;;;;;;;;4925989;29;20048;-82
2024/01/14 11:10:03;;;;;;;41.58;17.58;;;;;;;;;;4920858;29;20106;-81
2024/01/14 11:12:38;;;;;;;43.50;16.75;;;;;;;;;;4923749;29;20431;-81
2024/01/14 11:15:27;;;;;;;36.90;15.70;;;;;;;;;;4939518;29;20055;-82
2024/01/14 11:18:11;;;;;;;43.00;17.58;;;;;;;;;;4954650;29;20169;-80
2024/01/14 11:20:41;;;;;;;40.03;17.38;;;;;;;;;;4954515;29;20077;-80
2024/01/14 11:23:31;;;;;;;38.95;16.80;;;;;;;;;;4927828;29;20533;-78
2024/01/14 11:25:59;;;;;;;39.47;17.00;;;;;;;;;;4916879;29;20143;-78
2024/01/14 11:28:27;;;;;;;40.33;17.15;;;;;;;;;;4928344;29;20060;-81
2024/01/14 11:30:59;;;;;;;40.53;17.40;;;;;;;;;;4930683;29;20106;-79
2024/01/14 11:33:31;;;;;;;37.03;15.95;;;;;;;;;;4938148;29;20106;-80
2024/01/14 11:36:02;;;;;;;56.33;17.73;;;;;;;;;;4963248;29;20047;-80
2024/01/14 11:38:49;;;;;;;36.67;15.00;;;;;;;;;;4943413;29;20123;-80
2024/01/14 11:41:29;;;;;;;41.80;17.88;;;;;;;;;;4967497;29;20491;-82
2024/01/14 11:44:03;;;;;;;37.92;18.00;;;;;;;;;;4936953;28;20039;-79
2024/01/14 11:46:43;;;;;;;38.90;15.38;;;;;;;;;;4934651;29;20067;-82
2024/01/14 11:49:20;;;;;;;40.42;16.13;;;;;;;;;;4953009;28;20130;-77
2024/01/14 11:51:52;;;;;;;32.63;14.45;;;;;;;;;;4934249;29;20050;-76
2024/01/14 11:54:21;;;;;;;34.08;15.95;;;;;;;;;;4909824;29;20072;-76
2024/01/14 11:56:49;;;;;;;35.42;15.27;;;;;;;;;;4919915;29;20114;-76
2024/01/14 11:59:16;;;;;;;42.95;16.58;;;;;;;;;;4920902;29;20051;-76
2024/01/14 12:02:03;;;;;;;38.08;16.27;;;;;;;;;;4924099;29;20082;-77
2024/01/14 12:04:30;;;;;;;37.60;15.23;;;;;;;;;;4920253;29;20138;-77
2024/01/14 12:06:57;;;;;;;39.15;16.42;;;;;;;;;;4936222;29;20142;-77
2024/01/14 12:09:25;;;;;;;37.35;15.20;;;;;;;;;;4926280;29;20053;-82
2024/01/14 12:11:52;;;;;;;38.35;15.88;;;;;;;;;;4924981;29;20053;-81
2024/01/14 12:14:19;;;;;;;38.13;15.40;;;;;;;;;;4956887;29;20095;-81
2024/01/14 12:16:46;;;;;;;38.80;16.08;;;;;;;;;;4938233;29;20427;-80
2024/01/14 12:19:18;;;;;;;34.72;15.65;;;;;;;;;;4940947;28;20070;-81
2024/01/14 12:21:45;;;;;;;36.72;15.85;;;;;;;;;;4932456;28;20071;-81
2024/01/14 12:24:12;;;;;;;35.45;15.20;;;;;;;;;;4915050;29;20451;-81
2024/01/14 12:26:45;;;;;;;40.00;17.05;;;;;;;;;;4960074;29;20039;-79
2024/01/14 12:29:12;;;;;;;37.83;16.60;;;;;;;;;;4935352;29;20427;-81
2024/01/14 12:31:39;;;;;;;39.88;16.25;;;;;;;;;;4932020;29;20039;-80
2024/01/14 12:34:23;;;;;;;43.53;15.90;;;;;;;;;;4925298;29;20106;-80
2024/01/14 12:36:50;;;;;;;34.38;14.48;;;;;;;;;;4923486;29;20503;-80
2024/01/14 12:39:20;;;;;;;36.40;15.70;;;;;;;;;;4925560;29;20426;-81
2024/01/14 12:41:48;;;;;;;30.48;13.50;;;;;;;;;;4923079;29;20047;-80
2024/01/14 12:44:22;;;;;;;38.40;15.80;;;;;;;;;;4926979;29;20047;-81
2024/01/14 12:46:52;;;;;;;32.70;14.40;;;;;;;;;;4924433;29;20051;-80
2024/01/14 12:49:24;;;;;;;36.20;15.23;;;;;;;;;;4931110;28;20054;-80
2024/01/14 12:52:01;;;;;;;37.72;15.85;;;;;;;;;;4923144;29;20095;-80
2024/01/14 12:54:28;;;;;;;33.95;15.85;;;;;;;;;;4924283;29;20079;-79
2024/01/14 12:56:58;;;;;;;37.08;15.60;;;;;;;;;;4928981;29;20060;-80
2024/01/14 12:59:28;;;;;;;35.65;15.50;;;;;;;;;;4956391;29;20522;-80
2024/01/14 13:01:55;;;;;;;39.25;16.45;;;;;;;;;;4924546;29;20047;-80
2024/01/14 13:04:26;;;;;;;36.25;15.45;;;;;;;;;;4940348;29;20086;-80
2024/01/14 13:06:53;;;;;;;38.13;15.30;;;;;;;;;;4925552;29;20605;-81
2024/01/14 13:09:25;;;;;;;35.30;14.70;;;;;;;;;;4924537;29;20049;-81
2024/01/14 13:11:52;;;;;;;33.35;14.82;;;;;;;;;;4938894;29;20558;-81
2024/01/14 13:14:18;;;;;;;31.95;13.57;;;;;;;;;;4928970;29;20086;-81
2024/01/14 13:16:45;;;;;;;36.25;14.43;;;;;;;;;;4923186;29;20043;-81
2024/01/14 13:19:20;;;;;;;38.00;15.20;;;;;;;;;;4940066;29;20050;-81
2024/01/14 13:21:48;;;;;;;31.90;14.50;;;;;;;;;;4931751;29;20066;-81
2024/01/14 13:24:15;;;;;;;32.72;14.90;;;;;;;;;;4929853;28;20058;-81
2024/01/14 13:26:42;;;;;;;35.03;15.30;;;;;;;;;;4923941;29;20055;-82
2024/01/14 13:29:10;;;;;;;31.10;15.85;;;;;;;;;;4922809;29;20079;-83
2024/01/14 13:31:39;;;;;;;34.33;15.77;;;;;;;;;;4940722;29;20055;-83
2024/01/14 13:34:07;;;;;;;35.50;14.73;;;;;;;;;;4923170;29;20059;-82
2024/01/14 13:36:35;;;;;;;38.25;16.05;;;;;;;;;;4931199;29;20127;-81
2024/01/14 13:39:03;;;;;;;39.75;16.05;;;;;;;;;;4928174;29;20455;-82
2024/01/14 13:41:32;;;;;;;32.53;15.85;;;;;;;;;;4914783;29;20073;-83
2024/01/14 13:43:59;;;;;;;38.40;15.95;;;;;;;;;;4931121;29;20047;-83
2024/01/14 13:46:43;;;;;;;35.22;15.63;;;;;;;;;;4928035;29;20051;-82
2024/01/14 13:49:11;;;;;;;35.47;15.52;;;;;;;;;;4923837;29;20062;-82
2024/01/14 13:51:38;;;;;;;37.00;15.75;;;;;;;;;;4922639;29;20066;-82
2024/01/14 13:54:05;;;;;;;37.55;16.70;;;;;;;;;;4925032;29;20472;-82
2024/01/14 13:56:40;;;;;;;35.45;16.80;;;;;;;;;;4933096;29;20055;-82
2024/01/14 13:59:08;;;;;;;39.72;16.35;;;;;;;;;;4923378;29;20071;-82
2024/01/14 14:01:39;;;;;;;36.75;15.68;;;;;;;;;;4922466;29;20126;-83
2024/01/14 14:04:10;;;;;;;31.52;14.45;;;;;;;;;;4919544;29;20130;-82
2024/01/14 14:06:38;;;;;;;37.05;15.98;;;;;;;;;;4938558;29;20058;-82
2024/01/14 14:09:06;;;;;;;36.05;15.95;;;;;;;;;;4922381;29;20146;-82
2024/01/14 14:11:35;;;;;;;37.80;16.75;;;;;;;;;;4928959;28;20053;-82
2024/01/14 14:14:03;;;;;;;36.28;16.98;;;;;;;;;;4924414;29;20079;-82
2024/01/14 14:16:30;;;;;;;37.15;14.95;;;;;;;;;;4940655;29;20047;-82
2024/01/14 14:19:08;;;;;;;37.15;15.35;;;;;;;;;;4927719;29;20051;-82
2024/01/14 14:21:36;;;;;;;33.67;16.05;;;;;;;;;;4937456;29;20118;-82
2024/01/14 14:24:06;;;;;;;39.92;15.85;;;;;;;;;;4928349;29;20053;-82